Time;durP1;ratioP1;P1;durP2;ratioP2;P2;SDS_P1;SDS_P2;PMS_P1;PMS_P2;Temp;Humidity;BMP_temperature;BMP_pressure;BME280_temperature;BME280_humidity;BME280_pressure;Samples;Min_cycle;Max_cycle;Signal;HPM_P1;HPM_P2
2021/04/10 00:00:10;;;;;;;20.75;16.67;;;;;;;6.57;58.44;100411.19;5070784;28;20096;-66
2021/04/10 00:02:35;;;;;;;22.15;17.95;;;;;;;7.49;55.24;100392.06;5070184;28;20032;-65
2021/04/10 00:05:03;;;;;;;23.83;19.05;;;;;;;8.15;52.63;100391.06;5072010;28;20048;-65
2021/04/10 00:07:28;;;;;;;26.67;18.52;;;;;;;8.07;52.92;100388.44;5070976;28;20103;-65
2021/04/10 00:09:53;;;;;;;23.27;18.70;;;;;;;6.52;56.34;100378.84;5060642;28;20016;-65
2021/04/10 00:12:18;;;;;;;28.30;22.98;;;;;;;7.80;54.82;100377.16;5072251;28;20259;-65
2021/04/10 00:14:44;;;;;;;26.80;21.70;;;;;;;8.03;54.56;100376.19;5070528;28;20399;-65
2021/04/10 00:17:09;;;;;;;26.23;21.50;;;;;;;7.17;56.26;100375.47;5071761;28;20395;-65
2021/04/10 00:19:34;;;;;;;23.77;19.63;;;;;;;6.78;57.56;100384.19;5071607;28;20036;-66
2021/04/10 00:22:00;;;;;;;26.48;22.10;;;;;;;6.87;57.77;100377.19;5072359;28;20060;-65
2021/04/10 00:24:25;;;;;;;30.27;22.25;;;;;;;6.58;58.41;100380.63;5070215;28;20103;-65
2021/04/10 00:26:50;;;;;;;24.70;20.23;;;;;;;6.99;57.88;100377.22;5071076;28;20021;-65
2021/04/10 00:29:16;;;;;;;23.52;20.38;;;;;;;7.03;56.42;100371.09;5070672;28;20434;-65
2021/04/10 00:31:41;;;;;;;23.50;19.40;;;;;;;6.95;57.82;100369.31;5071271;28;20479;-65
2021/04/10 00:34:06;;;;;;;25.20;19.52;;;;;;;6.82;58.76;100376.28;5071551;28;20107;-65
2021/04/10 00:36:32;;;;;;;28.55;19.70;;;;;;;6.96;57.45;100382.44;5071781;28;20480;-65
2021/04/10 00:38:57;;;;;;;20.33;17.70;;;;;;;7.02;57.48;100366.72;5071553;28;20032;-65
2021/04/10 00:41:23;;;;;;;24.08;18.50;;;;;;;6.91;58.29;100373.72;5071481;28;20031;-65
2021/04/10 00:43:48;;;;;;;22.73;19.52;;;;;;;6.72;59.40;100368.44;5071479;28;20016;-65
2021/04/10 00:46:13;;;;;;;26.27;19.63;;;;;;;7.02;58.28;100363.22;5071462;28;20040;-65
2021/04/10 00:48:38;;;;;;;22.13;17.73;;;;;;;6.66;58.43;100365.78;5071315;28;20376;-65
2021/04/10 00:51:04;;;;;;;19.73;17.45;;;;;;;6.66;59.28;100364.06;5071344;28;20493;-65
2021/04/10 00:53:31;;;;;;;22.77;18.63;;;;;;;6.96;58.23;100356.22;5060485;28;20071;-65
2021/04/10 00:56:00;;;;;;;26.60;22.50;;;;;;;7.71;55.87;100350.94;5070346;28;20109;-65
2021/04/10 00:58:25;;;;;;;31.08;24.23;;;;;;;7.17;57.50;100344.84;5086689;28;20024;-65
2021/04/10 01:00:50;;;;;;;26.85;20.80;;;;;;;7.50;56.15;100341.34;5070055;28;20444;-65
2021/04/10 01:03:16;;;;;;;24.35;19.23;;;;;;;7.67;56.71;100343.94;5070172;28;20390;-65
2021/04/10 01:05:41;;;;;;;24.60;18.85;;;;;;;7.67;56.49;100338.69;5070394;28;20028;-65
2021/04/10 01:08:07;;;;;;;20.88;18.10;;;;;;;7.56;55.58;100338.69;5071204;28;20173;-65
2021/04/10 01:10:32;;;;;;;21.52;18.63;;;;;;;7.23;57.22;100337.88;5070803;28;20024;-66
2021/04/10 01:13:09;;;;;;;21.25;17.65;;;;;;;7.75;56.17;100329.03;5070215;28;20488;-66
2021/04/10 01:15:46;;;;;;;23.48;19.83;;;;;;;7.98;54.98;100338.59;5070166;28;20028;-65
2021/04/10 01:18:17;;;;;;;21.77;18.10;;;;;;;7.57;56.19;100340.47;5070020;28;20036;-66
2021/04/10 01:21:05;;;;;;;23.05;18.75;;;;;;;7.00;57.96;100331.75;5071171;28;20024;-66
2021/04/10 01:23:49;;;;;;;22.13;17.58;;;;;;;7.30;57.67;100334.34;5056768;28;20404;-66
2021/04/10 01:26:27;;;;;;;19.77;17.67;;;;;;;6.99;58.09;100339.59;5070826;28;20090;-67
2021/04/10 01:28:53;;;;;;;20.65;18.02;;;;;;;7.13;57.53;100342.22;5070195;28;20020;-67
2021/04/10 01:31:22;;;;;;;22.70;18.48;;;;;;;6.97;58.27;100336.97;5069349;28;20544;-66
2021/04/10 01:33:50;;;;;;;23.48;19.23;;;;;;;7.11;57.95;100347.50;5069519;28;20036;-66
2021/04/10 01:36:18;;;;;;;19.92;17.52;;;;;;;7.01;59.05;100348.38;5069778;28;20051;-67
2021/04/10 01:38:47;;;;;;;26.70;18.10;;;;;;;7.66;57.75;100347.41;5071389;28;20025;-67
2021/04/10 01:41:15;;;;;;;20.65;18.45;;;;;;;7.78;57.25;100351.78;5073746;28;20545;-67
2021/04/10 01:43:41;;;;;;;23.35;18.13;;;;;;;7.65;58.27;100343.06;5072997;28;20395;-67
2021/04/10 01:46:06;;;;;;;21.10;17.30;;;;;;;7.28;59.03;100331.75;5073099;28;20051;-67
2021/04/10 01:48:32;;;;;;;25.02;19.50;;;;;;;7.35;59.50;100365.84;5073317;28;20479;-67
2021/04/10 01:50:59;;;;;;;23.45;18.80;;;;;;;7.88;58.83;100357.88;5073166;28;20025;-67
2021/04/10 01:53:25;;;;;;;21.42;18.17;;;;;;;8.00;56.67;100357.81;5073520;28;20033;-66
2021/04/10 01:55:51;;;;;;;21.90;18.33;;;;;;;7.83;57.85;100357.88;5073774;28;20109;-66
2021/04/10 01:58:17;;;;;;;22.67;19.90;;;;;;;7.60;59.75;100376.31;5088187;28;20040;-67
2021/04/10 02:00:42;;;;;;;22.73;18.75;;;;;;;7.11;61.07;100357.09;5056072;28;20078;-67
2021/04/10 02:03:09;;;;;;;22.08;18.27;;;;;;;6.88;62.91;100353.59;5073627;28;20016;-67
2021/04/10 02:05:35;;;;;;;30.25;22.33;;;;;;;7.36;62.27;100343.97;5073329;28;20048;-66
2021/04/10 02:08:01;;;;;;;25.00;19.25;;;;;;;7.38;61.91;100352.72;5073246;28;20036;-67
2021/04/10 02:10:27;;;;;;;27.38;20.45;;;;;;;7.81;60.42;100373.63;5073438;28;20028;-67
2021/04/10 02:12:53;;;;;;;22.70;18.85;;;;;;;7.59;60.90;100357.06;5073023;28;20031;-67
2021/04/10 02:15:19;;;;;;;26.30;20.50;;;;;;;7.69;62.33;100352.66;5072893;28;20028;-67
2021/04/10 02:17:45;;;;;;;23.67;19.77;;;;;;;7.53;61.77;100392.06;5072875;28;20032;-67
2021/04/10 02:20:12;;;;;;;23.27;20.50;;;;;;;7.71;61.31;100377.19;5073402;28;20031;-67
2021/04/10 02:22:49;;;;;;;25.88;20.85;;;;;;;8.09;59.72;100368.31;5073917;28;20024;-67
2021/04/10 02:25:16;;;;;;;23.95;20.58;;;;;;;7.85;62.25;100373.63;5056427;28;20081;-66
2021/04/10 02:27:41;;;;;;;22.90;20.42;;;;;;;8.37;59.75;100369.94;5072468;28;20383;-67
2021/04/10 02:30:07;;;;;;;22.30;19.63;;;;;;;8.01;60.14;100358.72;5072982;28;20029;-66
2021/04/10 02:32:39;;;;;;;23.13;19.08;;;;;;;7.62;62.59;100358.81;5073399;28;20028;-66
2021/04/10 02:35:09;;;;;;;25.25;20.67;;;;;;;7.50;63.04;100371.06;5074274;28;20025;-66
2021/04/10 02:37:34;;;;;;;24.90;20.35;;;;;;;8.05;61.43;100373.56;5071814;28;20049;-66
2021/04/10 02:40:02;;;;;;;27.95;21.73;;;;;;;8.88;59.32;100368.81;5072644;28;20488;-66
2021/04/10 02:42:28;;;;;;;30.83;21.48;;;;;;;8.65;59.75;100369.81;5072345;28;20030;-66
2021/04/10 02:44:54;;;;;;;27.45;21.38;;;;;;;8.20;61.10;100375.25;5072726;28;20099;-66
2021/04/10 02:47:23;;;;;;;24.05;20.45;;;;;;;8.25;62.25;100370.88;5072397;28;20074;-66
2021/04/10 02:49:52;;;;;;;28.92;22.15;;;;;;;8.84;60.35;100365.31;5071246;28;20032;-66
2021/04/10 02:52:28;;;;;;;26.65;20.85;;;;;;;7.83;64.53;100371.88;5071723;28;20369;-66
2021/04/10 02:54:55;;;;;;;25.15;19.80;;;;;;;7.77;63.90;100365.78;5072112;28;20028;-65
2021/04/10 02:57:21;;;;;;;25.15;20.40;;;;;;;7.52;68.19;100365.81;5073381;28;20024;-66
2021/04/10 02:59:49;;;;;;;28.23;19.55;;;;;;;7.62;66.00;100371.94;5072455;28;20077;-65
2021/04/10 03:02:15;;;;;;;25.85;20.80;;;;;;;7.60;65.97;100368.44;5071864;28;20055;-65
2021/04/10 03:04:41;;;;;;;23.98;20.17;;;;;;;7.35;67.09;100365.84;5057822;28;20032;-66
2021/04/10 03:07:08;;;;;;;28.20;20.50;;;;;;;7.69;67.58;100369.31;5081181;28;20064;-66
2021/04/10 03:09:34;;;;;;;28.17;21.27;;;;;;;8.19;65.11;100378.78;5072449;28;20028;-66
2021/04/10 03:11:59;;;;;;;25.92;20.85;;;;;;;8.13;65.05;100370.94;5071740;28;20501;-66
2021/04/10 03:14:25;;;;;;;23.95;19.85;;;;;;;7.91;65.42;100373.63;5071388;28;20021;-66
2021/04/10 03:16:51;;;;;;;25.92;20.77;;;;;;;8.58;65.24;100376.84;5072126;28;20063;-66
2021/04/10 03:19:17;;;;;;;29.27;22.05;;;;;;;8.34;63.62;100383.09;5072428;28;20017;-66
2021/04/10 03:21:42;;;;;;;33.05;22.27;;;;;;;7.86;67.94;100375.38;5055016;28;20036;-66
2021/04/10 03:24:07;;;;;;;24.73;20.77;;;;;;;7.89;67.52;100378.00;5072507;28;20029;-65
2021/04/10 03:26:33;;;;;;;28.08;21.60;;;;;;;8.37;66.65;100387.47;5073279;28;20035;-66
2021/04/10 03:28:59;;;;;;;29.83;21.92;;;;;;;9.20;63.32;100385.22;5069247;28;20033;-66
2021/04/10 03:31:24;;;;;;;27.63;21.48;;;;;;;8.89;63.81;100398.59;5070750;28;20028;-65
2021/04/10 03:33:50;;;;;;;29.05;21.38;;;;;;;8.58;65.48;100411.03;5071022;28;20085;-65
2021/04/10 03:36:15;;;;;;;27.20;21.13;;;;;;;9.25;63.14;100404.50;5071288;28;20040;-65
2021/04/10 03:38:42;;;;;;;25.20;20.60;;;;;;;8.87;64.91;100408.25;5071551;28;20036;-65
2021/04/10 03:41:07;;;;;;;28.40;22.17;;;;;;;8.71;64.53;100409.22;5071400;28;20035;-66
2021/04/10 03:43:33;;;;;;;27.40;21.58;;;;;;;9.37;63.09;100404.38;5071534;28;20024;-65
2021/04/10 03:46:01;;;;;;;29.08;23.25;;;;;;;9.19;64.08;100409.78;5054985;28;20300;-65
2021/04/10 03:48:27;;;;;;;28.75;22.25;;;;;;;9.15;63.33;100411.59;5071512;28;20025;-65
2021/04/10 03:50:52;;;;;;;29.73;23.10;;;;;;;8.87;63.92;100413.53;5070844;28;20553;-65
2021/04/10 03:53:17;;;;;;;32.38;23.38;;;;;;;8.87;62.75;100418.78;5071815;28;20044;-65
2021/04/10 03:55:43;;;;;;;26.98;22.05;;;;;;;8.98;63.90;100420.44;5071910;28;20036;-65
2021/04/10 03:58:08;;;;;;;28.73;22.38;;;;;;;8.96;62.99;100416.09;5072142;28;20051;-65
2021/04/10 04:00:33;;;;;;;29.02;22.80;;;;;;;8.74;66.99;100421.50;5071476;28;20396;-66
2021/04/10 04:03:00;;;;;;;26.33;19.83;;;;;;;8.30;66.94;100428.66;5071757;28;20463;-66
2021/04/10 04:05:25;;;;;;;26.63;21.50;;;;;;;8.18;68.52;100419.94;5071398;28;20044;-66
2021/04/10 04:07:50;;;;;;;27.10;21.35;;;;;;;8.25;67.45;100418.16;5071785;28;20399;-66
2021/04/10 04:10:16;;;;;;;29.48;22.08;;;;;;;7.92;69.28;100420.91;5071923;28;20021;-65
2021/04/10 04:12:42;;;;;;;25.27;20.60;;;;;;;8.64;69.00;100425.03;5069783;28;20043;-65
2021/04/10 04:15:08;;;;;;;25.13;20.65;;;;;;;8.77;68.05;100424.09;5069943;28;20036;-66
2021/04/10 04:17:33;;;;;;;33.70;23.33;;;;;;;8.57;67.02;100426.84;5071698;28;20078;-65
2021/04/10 04:19:58;;;;;;;28.17;21.95;;;;;;;8.49;67.31;100426.81;5070314;28;20732;-65
2021/04/10 04:22:24;;;;;;;31.35;23.38;;;;;;;8.29;68.32;100429.53;5070749;28;20032;-65
2021/04/10 04:24:49;;;;;;;34.80;24.52;;;;;;;8.33;71.63;100423.38;5069257;28;20103;-65
2021/04/10 04:27:14;;;;;;;33.03;25.08;;;;;;;8.69;69.25;100416.25;5077347;28;20059;-65
2021/04/10 04:29:41;;;;;;;35.38;26.60;;;;;;;8.28;68.51;100426.06;5071971;28;20466;-65
2021/04/10 04:32:06;;;;;;;33.10;26.35;;;;;;;8.59;69.76;100436.47;5075073;28;20059;-65
2021/04/10 04:34:32;;;;;;;38.35;27.98;;;;;;;8.68;69.61;100429.41;5079394;28;20569;-66
2021/04/10 04:36:57;;;;;;;31.75;24.95;;;;;;;8.47;67.40;100436.47;5071660;28;20031;-66
2021/04/10 04:39:22;;;;;;;31.75;26.88;;;;;;;8.51;68.43;100432.97;5072441;28;20024;-65
2021/04/10 04:41:48;;;;;;;34.72;26.98;;;;;;;8.42;69.91;100427.72;5071566;28;20047;-65
2021/04/10 04:44:13;;;;;;;34.63;26.13;;;;;;;8.34;69.23;100436.50;5069927;28;20031;-66
2021/04/10 04:46:38;;;;;;;35.60;27.23;;;;;;;8.14;69.26;100433.09;5071646;28;20093;-66
2021/04/10 04:49:04;;;;;;;31.52;26.25;;;;;;;8.31;69.43;100439.16;5071336;28;20474;-66
2021/04/10 04:51:30;;;;;;;35.10;26.92;;;;;;;8.55;68.49;100440.00;5070509;28;20119;-66
2021/04/10 04:53:55;;;;;;;32.65;26.58;;;;;;;8.87;66.69;100438.06;5070318;28;20035;-66
2021/04/10 04:56:20;;;;;;;37.22;27.88;;;;;;;8.96;67.84;100439.75;5071593;28;20153;-66
2021/04/10 04:58:46;;;;;;;35.10;28.90;;;;;;;9.27;66.71;100439.53;5052511;28;20027;-66
2021/04/10 05:01:11;;;;;;;35.63;27.60;;;;;;;9.11;66.52;100444.06;5069528;28;20032;-66
2021/04/10 05:03:36;;;;;;;39.55;29.40;;;;;;;9.30;66.50;100446.56;5069430;28;20395;-66
2021/04/10 05:06:02;;;;;;;34.53;28.45;;;;;;;9.25;66.24;100446.59;5071168;28;20453;-66
2021/04/10 05:08:27;;;;;;;33.60;28.75;;;;;;;9.30;64.84;100447.41;5070833;28;20032;-65
2021/04/10 05:10:52;;;;;;;34.90;29.88;;;;;;;9.52;65.56;100452.53;5068957;28;20036;-65
2021/04/10 05:13:17;;;;;;;33.15;28.17;;;;;;;8.96;66.36;100456.44;5088201;28;20039;-66
2021/04/10 05:15:43;;;;;;;32.05;27.48;;;;;;;8.62;69.17;100466.22;5075883;28;20410;-66
2021/04/10 05:18:08;;;;;;;34.28;29.77;;;;;;;8.68;69.19;100464.47;5075688;28;20472;-65
2021/04/10 05:20:34;;;;;;;35.70;30.20;;;;;;;9.39;67.54;100471.91;5071618;28;20074;-65
2021/04/10 05:22:59;;;;;;;35.70;31.00;;;;;;;9.00;66.57;100477.47;5075943;28;20027;-65
2021/04/10 05:25:24;;;;;;;35.45;30.25;;;;;;;9.18;66.47;100469.47;5075347;28;20020;-65
2021/04/10 05:27:51;;;;;;;34.83;30.90;;;;;;;9.18;66.84;100479.97;5075377;28;20391;-66
2021/04/10 05:30:16;;;;;;;48.10;38.67;;;;;;;9.74;64.89;100470.78;5073243;28;20067;-66
2021/04/10 05:32:42;;;;;;;39.17;32.53;;;;;;;9.45;67.53;100474.53;5074969;28;20452;-66
2021/04/10 05:35:08;;;;;;;39.33;29.80;;;;;;;8.52;67.04;100470.63;5073238;28;20039;-66
2021/04/10 05:37:33;;;;;;;36.85;31.40;;;;;;;8.47;72.18;100473.25;5044075;28;20028;-66
2021/04/10 05:39:59;;;;;;;34.30;30.55;;;;;;;9.09;68.66;100478.28;5072402;28;20384;-66
2021/04/10 05:42:24;;;;;;;34.35;29.42;;;;;;;8.73;69.46;100480.19;5072199;28;20035;-66
2021/04/10 05:44:49;;;;;;;32.78;29.30;;;;;;;9.43;66.39;100481.53;5074690;28;20027;-66
2021/04/10 05:47:15;;;;;;;35.45;29.85;;;;;;;9.47;68.37;100484.16;5073921;28;20066;-66
2021/04/10 05:49:40;;;;;;;38.15;30.00;;;;;;;10.03;66.40;100488.06;5073697;28;20051;-65
2021/04/10 05:52:05;;;;;;;35.83;30.20;;;;;;;9.65;68.20;100502.44;5072672;28;20028;-66
2021/04/10 05:54:31;;;;;;;39.15;31.73;;;;;;;9.92;64.95;100505.72;5073276;28;20078;-66
2021/04/10 05:56:56;;;;;;;40.40;31.10;;;;;;;9.53;67.70;100506.91;5072311;28;20078;-66
2021/04/10 05:59:21;;;;;;;38.40;32.55;;;;;;;9.39;69.04;100511.41;5072826;28;20035;-65
2021/04/10 06:01:47;;;;;;;38.35;31.45;;;;;;;9.98;66.83;100505.69;5074624;28;20028;-65
2021/04/10 06:04:12;;;;;;;36.45;30.80;;;;;;;9.54;66.23;100505.19;5074470;28;20487;-66
2021/04/10 06:06:37;;;;;;;36.28;30.63;;;;;;;9.95;67.00;100500.44;5070810;28;20017;-65
2021/04/10 06:09:03;;;;;;;36.60;32.33;;;;;;;9.60;65.66;100505.09;5073794;28;20033;-65
2021/04/10 06:11:28;;;;;;;40.63;32.38;;;;;;;9.68;69.08;100507.69;5072835;28;20035;-65
2021/04/10 06:13:53;;;;;;;37.40;31.48;;;;;;;9.96;65.33;100500.44;5073999;28;20073;-66
2021/04/10 06:16:19;;;;;;;36.88;30.17;;;;;;;9.45;66.78;100514.00;5073436;28;20873;-66
2021/04/10 06:18:44;;;;;;;38.38;33.65;;;;;;;9.65;69.32;100513.88;5072601;28;20037;-66
2021/04/10 06:21:09;;;;;;;39.78;33.33;;;;;;;9.39;68.34;100516.66;5073471;28;20472;-66
2021/04/10 06:23:35;;;;;;;41.10;33.55;;;;;;;9.96;67.86;100515.34;5073556;28;20026;-66
2021/04/10 06:26:00;;;;;;;38.92;32.40;;;;;;;10.33;66.06;100516.75;5074350;28;20468;-66
2021/04/10 06:28:25;;;;;;;41.58;33.25;;;;;;;10.36;63.79;100520.25;5074343;28;20051;-66
2021/04/10 06:30:51;;;;;;;36.45;31.75;;;;;;;9.86;66.44;100519.84;5071163;28;20024;-66
2021/04/10 06:33:16;;;;;;;36.85;31.77;;;;;;;10.19;67.26;100523.06;5071676;28;20034;-66
2021/04/10 06:35:41;;;;;;;39.92;33.33;;;;;;;10.67;64.37;100523.47;5072668;28;20059;-66
2021/04/10 06:38:07;;;;;;;40.65;31.95;;;;;;;9.80;65.11;100531.28;5070662;28;20032;-66
2021/04/10 06:40:33;;;;;;;37.95;33.05;;;;;;;9.30;69.56;100534.28;5073500;28;20450;-65
2021/04/10 06:43:01;;;;;;;54.40;42.83;;;;;;;10.01;67.53;100524.09;5070533;28;20036;-66
2021/04/10 06:45:26;;;;;;;62.53;47.47;;;;;;;10.26;67.36;100524.75;5071389;28;20484;-66
2021/04/10 06:47:53;;;;;;;54.47;41.38;;;;;;;10.37;64.51;100534.31;5072431;28;20038;-66
2021/04/10 06:50:18;;;;;;;48.20;39.08;;;;;;;10.29;64.41;100537.00;5071802;28;20502;-66
2021/04/10 06:52:45;;;;;;;42.50;35.42;;;;;;;10.54;65.58;100536.78;5075551;28;20111;-66
2021/04/10 06:55:18;;;;;;;42.45;33.50;;;;;;;11.23;62.23;100541.19;5072485;28;20468;-66
2021/04/10 06:57:55;;;;;;;38.78;32.58;;;;;;;11.40;60.49;100549.75;5072416;28;20038;-66
2021/04/10 07:00:21;;;;;;;41.45;33.30;;;;;;;10.25;65.35;100554.63;5072880;28;20036;-66
2021/04/10 07:02:48;;;;;;;39.40;32.30;;;;;;;10.52;64.88;100546.47;5052078;28;20029;-66
2021/04/10 07:05:14;;;;;;;36.40;29.88;;;;;;;10.01;65.96;100558.34;5068037;28;20399;-66
2021/04/10 07:07:43;;;;;;;36.58;31.70;;;;;;;10.07;64.85;100547.75;5072584;28;20028;-66
2021/04/10 07:10:11;;;;;;;36.05;30.70;;;;;;;9.74;66.84;100555.91;5072337;28;20117;-65
2021/04/10 07:12:37;;;;;;;42.25;32.38;;;;;;;10.20;65.73;100548.50;5073306;28;20033;-65
2021/04/10 07:15:07;;;;;;;37.38;30.25;;;;;;;9.63;66.42;100566.53;5072290;28;20024;-66
2021/04/10 07:17:32;;;;;;;33.63;29.65;;;;;;;9.72;67.19;100562.09;5072093;28;20044;-66
2021/04/10 07:19:57;;;;;;;43.92;32.97;;;;;;;10.23;63.62;100563.41;5073447;28;20497;-66
2021/04/10 07:22:23;;;;;;;37.40;32.92;;;;;;;9.97;66.07;100567.19;5073209;28;20119;-66
2021/04/10 07:24:50;;;;;;;39.97;31.85;;;;;;;9.61;67.33;100567.44;5073429;28;20017;-66
2021/04/10 07:27:17;;;;;;;41.83;34.65;;;;;;;9.60;69.83;100569.19;5071700;28;20059;-66
2021/04/10 07:29:44;;;;;;;41.95;34.45;;;;;;;10.45;65.85;100569.41;5073175;28;20526;-66
2021/04/10 07:32:35;;;;;;;39.78;31.58;;;;;;;10.75;63.86;100569.97;5088075;28;20031;-66
2021/04/10 07:35:08;;;;;;;39.50;34.10;;;;;;;10.61;65.05;100574.50;5071913;28;20032;-66
2021/04/10 07:37:40;;;;;;;41.03;34.30;;;;;;;11.09;62.58;100573.94;5071353;28;20036;-66
2021/04/10 07:40:17;;;;;;;77.63;53.17;;;;;;;11.15;62.08;100580.91;5071748;28;20020;-66
2021/04/10 07:42:44;;;;;;;49.53;36.30;;;;;;;10.64;64.08;100585.88;5071783;28;20070;-66
2021/04/10 07:45:24;;;;;;;43.72;36.20;;;;;;;10.88;61.98;100588.28;5072926;28;20097;-66
2021/04/10 07:47:50;;;;;;;43.65;35.90;;;;;;;10.58;64.36;100593.88;5072907;28;20502;-66
2021/04/10 07:50:22;;;;;;;48.83;39.88;;;;;;;10.64;62.28;100600.84;5071306;28;20039;-66
2021/04/10 07:52:48;;;;;;;56.22;41.88;;;;;;;10.83;63.66;100601.53;5071212;28;20024;-66
2021/04/10 07:55:36;;;;;;;43.28;35.00;;;;;;;10.74;62.13;100605.13;5071439;28;20032;-66
2021/04/10 07:58:23;;;;;;;41.65;33.67;;;;;;;10.50;64.19;100603.63;5071550;28;20021;-66
2021/04/10 08:00:50;;;;;;;46.25;35.13;;;;;;;10.44;65.59;100606.31;5072445;28;20020;-65
2021/04/10 08:03:57;;;;;;;37.97;33.88;;;;;;;10.02;65.81;100623.34;5071358;28;20016;-66
2021/04/10 08:06:22;;;;;;;45.33;36.00;;;;;;;10.39;65.17;100619.50;5032578;28;20580;-66
2021/04/10 08:08:58;;;;;;;59.22;47.38;;;;;;;10.44;63.90;100630.03;5026890;28;20109;-66
2021/04/10 08:11:32;;;;;;;58.33;47.75;;;;;;;10.83;64.92;100622.63;5035895;28;20078;-66
2021/04/10 08:14:16;;;;;;;51.67;45.47;;;;;;;11.01;62.91;100626.81;5070464;28;20434;-66
2021/04/10 08:16:45;;;;;;;45.08;38.05;;;;;;;11.47;61.19;100628.91;5071033;28;20078;-66
2021/04/10 08:19:11;;;;;;;49.33;38.25;;;;;;;11.18;61.91;100630.16;5070046;28;20021;-66
2021/04/10 08:21:46;;;;;;;43.00;37.38;;;;;;;11.05;61.54;100638.22;5071224;28;20086;-67
2021/04/10 08:24:20;;;;;;;47.65;39.75;;;;;;;11.20;63.09;100636.28;5070709;28;20024;-66
2021/04/10 08:26:47;;;;;;;54.47;47.05;;;;;;;11.32;61.63;100635.25;5071776;28;20558;-67
2021/04/10 08:29:12;;;;;;;53.88;43.55;;;;;;;11.50;61.88;100640.28;5087746;28;20127;-66
2021/04/10 08:31:37;;;;;;;66.13;49.22;;;;;;;11.13;61.98;100641.63;5069629;28;20056;-66
2021/04/10 08:34:03;;;;;;;40.67;34.63;;;;;;;10.53;64.12;100661.59;5070665;28;20155;-66
2021/04/10 08:36:28;;;;;;;43.67;36.22;;;;;;;11.02;63.41;100643.53;5070626;28;20024;-66
2021/04/10 08:38:53;;;;;;;44.60;38.10;;;;;;;10.98;63.11;100653.25;5070369;28;20060;-67
2021/04/10 08:41:19;;;;;;;44.15;37.45;;;;;;;11.02;62.67;100654.97;5071769;28;20476;-66
2021/04/10 08:43:46;;;;;;;44.63;38.28;;;;;;;10.69;63.61;100664.09;5068155;28;20064;-66
2021/04/10 08:46:12;;;;;;;51.20;41.20;;;;;;;10.34;65.42;100661.72;5052691;28;20021;-66
2021/04/10 08:48:38;;;;;;;45.67;37.55;;;;;;;10.59;67.28;100658.91;5063936;28;20033;-66
2021/04/10 08:51:07;;;;;;;46.72;37.60;;;;;;;11.64;63.49;100668.31;5068774;28;20111;-66
2021/04/10 08:53:40;;;;;;;46.60;37.33;;;;;;;11.37;61.59;100660.69;5070541;28;20103;-66
2021/04/10 08:56:09;;;;;;;47.78;40.13;;;;;;;11.11;63.78;100669.81;5067128;28;20471;-67
2021/04/10 08:58:35;;;;;;;49.88;40.08;;;;;;;11.64;62.39;100669.16;5064299;28;20025;-66
2021/04/10 09:01:01;;;;;;;44.80;38.88;;;;;;;12.29;60.46;100675.31;5065169;28;20085;-66
2021/04/10 09:03:45;;;;;;;48.63;38.35;;;;;;;11.85;59.08;100682.97;5070524;28;20031;-66
2021/04/10 09:06:14;;;;;;;42.40;36.05;;;;;;;11.22;62.05;100682.91;5068858;28;20028;-67
2021/04/10 09:08:40;;;;;;;39.60;35.25;;;;;;;11.19;65.04;100684.69;5086078;28;20434;-66
2021/04/10 09:11:08;;;;;;;43.20;37.58;;;;;;;11.10;64.96;100683.06;5069155;28;20077;-66
2021/04/10 09:13:41;;;;;;;43.58;37.33;;;;;;;10.91;65.37;100686.75;5069783;28;20253;-66
2021/04/10 09:16:25;;;;;;;42.25;36.15;;;;;;;10.65;63.54;100690.53;5068880;28;20017;-68
2021/04/10 09:18:54;;;;;;;43.33;37.50;;;;;;;10.71;63.77;100701.91;5071142;28;20395;-67
2021/04/10 09:21:25;;;;;;;43.03;38.17;;;;;;;10.82;64.85;100700.03;5067449;28;20020;-67
2021/04/10 09:23:50;;;;;;;46.38;38.65;;;;;;;10.71;63.72;100701.91;5067917;28;20107;-67
2021/04/10 09:26:18;;;;;;;50.53;38.92;;;;;;;11.19;64.20;100698.78;5068701;28;20158;-67
2021/04/10 09:28:55;;;;;;;51.58;40.13;;;;;;;12.22;59.21;100708.03;5052515;28;20028;-66
2021/04/10 09:31:36;;;;;;;48.67;39.97;;;;;;;11.52;61.13;100711.59;5070866;28;20035;-67
2021/04/10 09:34:05;;;;;;;49.00;38.67;;;;;;;11.41;63.19;100704.66;5065670;28;20035;-66
2021/04/10 09:36:49;;;;;;;44.80;37.78;;;;;;;10.93;62.94;100722.81;5069600;28;20527;-67
2021/04/10 09:39:51;;;;;;;45.75;36.95;;;;;;;11.14;62.34;100721.72;5071070;28;20032;-66
2021/04/10 09:45:10;;;;;;;51.35;41.10;;;;;;;11.71;60.94;100729.84;5070517;28;20093;-66
2021/04/10 09:47:54;;;;;;;49.75;40.22;;;;;;;12.08;62.01;100725.84;5083177;28;20089;-66
2021/04/10 09:50:23;;;;;;;47.80;38.25;;;;;;;11.47;62.25;100735.41;5064850;28;20028;-67
2021/04/10 09:52:58;;;;;;;47.47;37.20;;;;;;;11.46;61.01;100738.06;5068208;28;20038;-66
2021/04/10 09:55:24;;;;;;;44.47;37.13;;;;;;;11.09;62.63;100745.50;5047766;28;20435;-67
2021/04/10 09:58:00;;;;;;;44.65;37.42;;;;;;;12.37;61.06;100745.72;5046568;28;20112;-66
2021/04/10 10:00:26;;;;;;;45.45;35.90;;;;;;;12.33;60.46;100752.81;5067269;28;20024;-67
2021/04/10 10:02:53;;;;;;;43.13;36.97;;;;;;;12.14;61.31;100753.06;5068999;28;20030;-67
2021/04/10 10:05:18;;;;;;;41.20;35.55;;;;;;;12.18;60.72;100746.84;5064447;28;20030;-66
2021/04/10 10:07:44;;;;;;;44.75;37.40;;;;;;;11.53;62.33;100750.31;5068864;28;20487;-67
2021/04/10 10:10:10;;;;;;;51.47;42.55;;;;;;;12.06;62.34;100750.56;5069414;28;20036;-66
2021/04/10 10:12:36;;;;;;;44.00;35.47;;;;;;;11.39;62.52;100748.72;5068922;28;20129;-67
2021/04/10 10:15:01;;;;;;;43.08;35.45;;;;;;;12.21;61.29;100748.59;5068774;28;20058;-66
2021/04/10 10:17:28;;;;;;;46.45;35.53;;;;;;;12.16;60.98;100758.34;5072959;28;20429;-66
2021/04/10 10:20:23;;;;;;;43.30;35.13;;;;;;;12.25;60.76;100754.69;5080800;28;20024;-66
2021/04/10 10:22:48;;;;;;;46.83;38.33;;;;;;;12.48;59.61;100756.13;5058575;28;20055;-66
2021/04/10 10:25:15;;;;;;;40.78;34.88;;;;;;;12.85;56.93;100754.63;5071211;28;20468;-66
2021/04/10 10:27:44;;;;;;;42.00;33.45;;;;;;;12.15;59.39;100762.78;5070661;28;20042;-66
2021/04/10 10:30:17;;;;;;;40.55;32.78;;;;;;;11.59;60.89;100755.53;5068906;28;20039;-65
2021/04/10 10:32:48;;;;;;;50.45;39.70;;;;;;;11.92;60.61;100763.94;5068374;28;20028;-66
2021/04/10 10:35:14;;;;;;;46.15;35.45;;;;;;;13.04;57.71;100766.63;5072494;28;20036;-66
2021/04/10 10:37:40;;;;;;;40.60;33.63;;;;;;;12.23;59.43;100769.69;5082147;28;20024;-66
2021/04/10 10:40:06;;;;;;;41.75;33.67;;;;;;;11.50;62.22;100774.09;5048631;28;20024;-66
2021/04/10 10:42:31;;;;;;;38.80;33.30;;;;;;;12.13;59.94;100768.97;5073020;28;20120;-66
2021/04/10 10:44:57;;;;;;;41.72;33.28;;;;;;;11.86;61.55;100774.56;5069588;28;20096;-67
2021/04/10 10:47:25;;;;;;;43.65;33.83;;;;;;;12.44;58.45;100774.69;5070197;28;20081;-66
2021/04/10 10:49:52;;;;;;;41.28;33.75;;;;;;;12.43;57.82;100774.69;5078565;28;20380;-66
2021/04/10 10:52:18;;;;;;;42.30;33.97;;;;;;;12.15;59.85;100775.13;5051971;28;20111;-66
2021/04/10 10:54:44;;;;;;;41.33;33.88;;;;;;;12.49;59.82;100768.44;5068949;28;20104;-66
2021/04/10 10:57:10;;;;;;;36.72;30.45;;;;;;;11.89;60.80;100773.66;5068496;28;20455;-66
2021/04/10 10:59:36;;;;;;;41.63;32.97;;;;;;;12.33;59.63;100763.38;5070296;28;20484;-66
2021/04/10 11:02:01;;;;;;;46.08;33.92;;;;;;;13.11;56.36;100770.06;5068975;28;20036;-65
2021/04/10 11:04:29;;;;;;;41.67;33.40;;;;;;;12.84;58.08;100769.66;5069855;28;20028;-66
2021/04/10 11:06:57;;;;;;;42.50;30.80;;;;;;;12.63;56.90;100770.84;5050899;28;20024;-66
2021/04/10 11:09:27;;;;;;;42.92;33.75;;;;;;;13.75;53.70;100768.00;5067868;28;20064;-66
2021/04/10 11:11:56;;;;;;;45.13;35.90;;;;;;;14.47;53.67;100768.16;5065846;28;20030;-66
2021/04/10 11:14:26;;;;;;;43.30;33.33;;;;;;;14.82;52.63;100764.69;5068819;28;20023;-65
2021/04/10 11:16:53;;;;;;;43.08;32.55;;;;;;;14.06;53.85;100767.31;5068001;28;20555;-66
2021/04/10 11:19:26;;;;;;;34.40;29.50;;;;;;;13.95;54.44;100771.09;5069842;28;20298;-66